createdAt,value
2017-01-17T00:00:55.427Z,0
2017-01-17T00:01:55.059Z,0
2017-01-17T00:02:55.101Z,0
2017-01-17T00:03:55.100Z,0
2017-01-17T00:04:55.132Z,0
2017-01-17T00:05:55.159Z,0
2017-01-17T00:06:55.582Z,0
2017-01-17T00:07:55.586Z,0
2017-01-17T00:08:54.852Z,0
2017-01-17T00:09:55.252Z,0
2017-01-17T00:10:55.280Z,0
2017-01-17T00:11:54.917Z,0
2017-01-17T00:12:55.354Z,0
2017-01-17T00:13:55.759Z,0
2017-01-17T00:14:55.380Z,0
2017-01-17T00:15:55.803Z,0
2017-01-17T00:16:55.832Z,0
2017-01-17T00:17:55.069Z,0
2017-01-17T00:18:55.890Z,0
2017-01-17T00:19:55.519Z,0
2017-01-17T00:20:55.551Z,0
2017-01-17T00:21:55.572Z,0
2017-01-17T00:22:55.984Z,0
2017-01-17T00:23:56.017Z,0
2017-01-17T00:24:56.050Z,0
2017-01-17T00:25:55.662Z,0
2017-01-17T00:26:55.699Z,0
2017-01-17T00:27:55.728Z,0
2017-01-17T00:28:56.144Z,0
2017-01-17T00:29:55.776Z,0
2017-01-17T00:30:55.414Z,0
2017-01-17T00:31:55.425Z,0
2017-01-17T00:32:56.648Z,0
2017-01-17T00:33:56.663Z,0
2017-01-17T00:34:56.308Z,0
2017-01-17T00:35:56.320Z,0
2017-01-17T00:36:56.367Z,0
2017-01-17T00:37:56.375Z,0
2017-01-17T00:38:56.003Z,0
2017-01-17T00:39:56.036Z,0
2017-01-17T00:40:55.660Z,0
2017-01-17T00:41:56.873Z,0
2017-01-17T00:42:56.118Z,0
2017-01-17T00:43:56.134Z,0
2017-01-17T00:44:56.155Z,0
2017-01-17T00:45:55.788Z,0
2017-01-17T00:46:56.608Z,0
2017-01-17T00:47:56.633Z,0
2017-01-17T00:48:56.670Z,0
2017-01-17T00:49:56.286Z,0
2017-01-17T00:50:57.099Z,0
2017-01-17T00:51:56.740Z,0
2017-01-17T00:52:56.368Z,0
2017-01-17T00:53:56.784Z,0
2017-01-17T00:54:56.025Z,0
2017-01-17T00:55:57.233Z,0
2017-01-17T00:56:56.879Z,0
2017-01-17T00:57:56.887Z,0
2017-01-17T00:58:56.534Z,0
2017-01-17T00:59:56.933Z,0
2017-01-17T01:00:57.357Z,0
2017-01-17T01:01:56.982Z,0
2017-01-17T01:02:56.222Z,0
2017-01-17T01:03:56.243Z,0
2017-01-17T01:04:56.271Z,0
2017-01-17T01:05:56.292Z,0
2017-01-17T01:06:57.117Z,0
2017-01-17T01:07:57.134Z,0
2017-01-17T01:08:57.580Z,0
2017-01-17T01:09:56.403Z,0
2017-01-17T01:10:57.232Z,0
2017-01-17T01:11:57.640Z,0
2017-01-17T01:12:57.269Z,0
2017-01-17T01:13:56.897Z,0
2017-01-17T01:14:57.330Z,0
2017-01-17T01:15:56.951Z,0
2017-01-17T01:16:57.371Z,0
2017-01-17T01:17:57.793Z,0
2017-01-17T01:18:57.825Z,0
2017-01-17T01:19:57.446Z,0
2017-01-17T01:20:57.083Z,0
2017-01-17T01:21:57.899Z,0
2017-01-17T01:22:57.524Z,0
2017-01-17T01:23:57.548Z,0
2017-01-17T01:24:57.601Z,0
2017-01-17T01:25:56.810Z,0
2017-01-17T01:26:57.618Z,0
2017-01-17T01:27:57.255Z,0
2017-01-17T01:28:56.879Z,0
2017-01-17T01:29:57.704Z,0
2017-01-17T01:30:57.725Z,0
2017-01-17T01:31:57.762Z,0
2017-01-17T01:32:57.786Z,0
2017-01-17T01:33:57.803Z,0
2017-01-17T01:34:57.836Z,0
2017-01-17T01:35:58.253Z,0
2017-01-17T01:36:58.285Z,0
2017-01-17T01:37:58.302Z,0
2017-01-17T01:38:57.526Z,0
2017-01-17T01:39:57.559Z,0
2017-01-17T01:40:57.987Z,0
2017-01-17T01:41:57.604Z,0
2017-01-17T01:42:58.429Z,0
2017-01-17T01:43:57.657Z,0
2017-01-17T01:44:58.078Z,0
2017-01-17T01:45:58.505Z,0
2017-01-17T01:46:58.127Z,0
2017-01-17T01:47:58.157Z,0
2017-01-17T01:48:58.181Z,0
2017-01-17T01:49:58.210Z,0
2017-01-17T01:50:57.843Z,0
2017-01-17T01:51:57.467Z,0
2017-01-17T01:52:58.284Z,0
2017-01-17T01:53:58.700Z,0
2017-01-17T01:54:58.729Z,0
2017-01-17T01:55:57.964Z,0
2017-01-17T01:56:57.603Z,0
2017-01-17T01:57:58.435Z,0
2017-01-17T01:58:58.440Z,0
2017-01-17T01:59:58.457Z,0
2017-01-17T02:00:58.497Z,0
2017-01-17T02:01:58.122Z,0
2017-01-17T02:02:58.939Z,0
2017-01-17T02:03:57.772Z,0
2017-01-17T02:04:57.807Z,0
2017-01-17T02:05:58.617Z,0
2017-01-17T02:06:58.254Z,0
2017-01-17T02:07:58.671Z,0
2017-01-17T02:08:57.890Z,0
2017-01-17T02:09:58.712Z,0
2017-01-17T02:10:58.741Z,0
2017-01-17T02:11:59.185Z,0
2017-01-17T02:12:58.394Z,0
2017-01-17T02:13:58.022Z,0
2017-01-17T02:14:58.060Z,0
2017-01-17T02:15:58.892Z,0
2017-01-17T02:16:58.529Z,0
2017-01-17T02:17:59.301Z,0
2017-01-17T02:18:59.330Z,0
2017-01-17T02:19:59.359Z,0
2017-01-17T02:20:58.219Z,0
2017-01-17T02:21:58.616Z,0
2017-01-17T02:22:58.652Z,0
2017-01-17T02:23:58.672Z,0
2017-01-17T02:24:59.089Z,0
2017-01-17T02:25:59.120Z,0
2017-01-17T02:26:58.748Z,0
2017-01-17T02:27:59.565Z,0
2017-01-17T02:28:58.794Z,0
2017-01-17T02:29:58.426Z,0
2017-01-17T02:30:59.250Z,0
2017-01-17T02:31:58.875Z,0
2017-01-17T02:32:58.900Z,0
2017-01-17T02:33:59.317Z,0
2017-01-17T02:34:59.753Z,0
2017-01-17T02:35:59.767Z,0
2017-01-17T02:36:59.803Z,0
2017-01-17T02:37:59.019Z,0
2017-01-17T02:38:59.044Z,0
2017-01-17T02:39:59.474Z,0
2017-01-17T02:40:59.109Z,0
2017-01-17T02:41:58.726Z,0
2017-01-17T02:42:58.751Z,0
2017-01-17T02:43:59.580Z,0
2017-01-17T02:44:58.805Z,0
2017-01-17T02:46:00.021Z,0
2017-01-17T02:46:58.861Z,0
2017-01-17T02:48:00.067Z,0
2017-01-17T02:48:58.915Z,0
2017-01-17T02:49:59.724Z,0
2017-01-17T02:50:59.764Z,0
2017-01-17T02:52:00.194Z,0
2017-01-17T02:52:59.799Z,0
2017-01-17T02:53:59.823Z,0
2017-01-17T02:54:59.851Z,0
2017-01-17T02:55:59.476Z,0
2017-01-17T02:56:59.509Z,0
2017-01-17T02:57:59.929Z,0
2017-01-17T02:58:59.551Z,0
2017-01-17T02:59:59.181Z,0
2017-01-17T03:01:00.008Z,0
2017-01-17T03:02:00.054Z,0
2017-01-17T03:03:00.438Z,0
2017-01-17T03:03:59.290Z,0
2017-01-17T03:04:59.311Z,0
2017-01-17T03:05:59.732Z,0
2017-01-17T03:07:00.168Z,0
2017-01-17T03:07:59.785Z,0
2017-01-17T03:09:00.194Z,0
2017-01-17T03:10:00.222Z,0
2017-01-17T03:11:00.675Z,0
2017-01-17T03:11:59.484Z,0
2017-01-17T03:12:59.917Z,0
2017-01-17T03:13:59.929Z,0
2017-01-17T03:14:59.954Z,0
2017-01-17T03:16:00.374Z,0
2017-01-17T03:16:59.620Z,0
2017-01-17T03:18:00.429Z,0
2017-01-17T03:19:00.846Z,0
2017-01-17T03:19:59.682Z,0
2017-01-17T03:21:00.503Z,0
2017-01-17T03:22:00.556Z,0
2017-01-17T03:22:59.752Z,0
2017-01-17T03:24:00.580Z,0
2017-01-17T03:24:59.822Z,0
2017-01-17T03:26:01.023Z,0
2017-01-17T03:27:01.052Z,0
2017-01-17T03:28:00.280Z,0
2017-01-17T03:28:59.912Z,0
2017-01-17T03:30:00.729Z,0
2017-01-17T03:31:00.370Z,0
2017-01-17T03:32:00.775Z,0
2017-01-17T03:33:00.020Z,0
2017-01-17T03:34:00.841Z,0
2017-01-17T03:35:01.258Z,0
2017-01-17T03:36:01.274Z,0
2017-01-17T03:37:00.118Z,0
2017-01-17T03:38:00.128Z,0
2017-01-17T03:39:00.576Z,0
2017-01-17T03:40:00.193Z,0
2017-01-17T03:41:00.218Z,0
2017-01-17T03:42:01.041Z,0
2017-01-17T03:43:01.472Z,0
2017-01-17T03:44:01.075Z,0
2017-01-17T03:45:00.345Z,0
2017-01-17T03:46:01.118Z,0
2017-01-17T03:47:01.174Z,0
2017-01-17T03:48:00.783Z,0
2017-01-17T03:49:01.208Z,0
2017-01-17T03:50:00.441Z,0
2017-01-17T03:51:01.648Z,0
2017-01-17T03:52:01.674Z,0
2017-01-17T03:53:00.510Z,0
2017-01-17T03:54:01.328Z,0
2017-01-17T03:55:00.568Z,0
2017-01-17T03:56:01.389Z,0
2017-01-17T03:57:00.626Z,0
2017-01-17T03:58:01.431Z,0
2017-01-17T03:59:01.075Z,0
2017-01-17T04:00:01.491Z,0
2017-01-17T04:01:01.513Z,0
2017-01-17T04:02:00.733Z,0
2017-01-17T04:03:01.166Z,0
2017-01-17T04:04:00.791Z,0
2017-01-17T04:05:02.012Z,0
2017-01-17T04:06:01.637Z,0
2017-01-17T04:07:01.281Z,0
2017-01-17T04:08:01.698Z,0
2017-01-17T04:09:02.403Z,0
2017-01-17T04:10:01.337Z,0
2017-01-17T04:11:01.364Z,0
2017-01-17T04:12:00.988Z,0
2017-01-17T04:13:01.413Z,0
2017-01-17T04:14:01.039Z,0
2017-01-17T04:15:01.868Z,0
2017-01-17T04:16:01.488Z,0
2017-01-17T04:17:02.334Z,0
2017-01-17T04:18:01.145Z,0
2017-01-17T04:19:02.354Z,0
2017-01-17T04:20:01.203Z,0
2017-01-17T04:21:01.608Z,0
2017-01-17T04:22:01.249Z,0
2017-01-17T04:23:02.061Z,0
2017-01-17T04:24:01.690Z,0
2017-01-17T04:25:02.506Z,0
2017-01-17T04:26:02.139Z,0
2017-01-17T04:27:01.764Z,0
2017-01-17T04:28:02.185Z,0
2017-01-17T04:29:01.418Z,0
2017-01-17T04:30:01.844Z,0
2017-01-17T04:31:02.263Z,0
2017-01-17T04:32:02.680Z,0
2017-01-17T04:33:01.912Z,0
2017-01-17T04:34:02.726Z,0
2017-01-17T04:35:01.572Z,0
2017-01-17T04:36:01.995Z,0
2017-01-17T04:37:01.627Z,0
2017-01-17T04:38:02.045Z,0
2017-01-17T04:39:02.457Z,0
2017-01-17T04:40:02.490Z,0
2017-01-17T04:41:02.514Z,0
2017-01-17T04:42:02.143Z,0
2017-01-17T04:43:02.192Z,0
2017-01-17T04:44:02.589Z,0
2017-01-17T04:45:01.821Z,0
2017-01-17T04:46:02.242Z,0
2017-01-17T04:47:02.271Z,0
2017-01-17T04:48:03.080Z,0
2017-01-17T04:49:02.712Z,0
2017-01-17T04:50:02.333Z,0
2017-01-17T04:51:02.364Z,0
2017-01-17T04:52:02.394Z,0
2017-01-17T04:53:02.820Z,0
2017-01-17T04:54:02.047Z,0
2017-01-17T04:55:02.865Z,0
2017-01-17T04:56:02.502Z,0
2017-01-17T04:57:03.311Z,0
2017-01-17T04:58:02.935Z,0
2017-01-17T04:59:02.964Z,0
2017-01-17T05:00:02.593Z,0
2017-01-17T05:01:03.013Z,0
2017-01-17T05:02:02.246Z,0
2017-01-17T05:03:02.666Z,0
2017-01-17T05:04:03.484Z,0
2017-01-17T05:05:03.110Z,0
2017-01-17T05:06:03.137Z,0
2017-01-17T05:07:02.770Z,0
2017-01-17T05:08:03.186Z,0
2017-01-17T05:09:03.247Z,0
2017-01-17T05:10:02.849Z,0
2017-01-17T05:11:03.265Z,0
2017-01-17T05:12:03.294Z,0
2017-01-17T05:13:02.922Z,0
2017-01-17T05:14:03.338Z,0
2017-01-17T05:15:03.364Z,0
2017-01-17T05:16:02.601Z,0
2017-01-17T05:17:03.021Z,0
2017-01-17T05:18:03.046Z,0
2017-01-17T05:19:03.479Z,0
2017-01-17T05:20:03.496Z,0
2017-01-17T05:21:03.120Z,0
2017-01-17T05:22:02.748Z,0
2017-01-17T05:23:03.569Z,0
2017-01-17T05:24:03.194Z,0
2017-01-17T05:25:03.219Z,0
2017-01-17T05:26:03.645Z,0
2017-01-17T05:27:03.265Z,0
2017-01-17T05:28:04.097Z,0
2017-01-17T05:29:03.317Z,0
2017-01-17T05:30:03.346Z,0
2017-01-17T05:31:04.162Z,0
2017-01-17T05:32:03.793Z,0
2017-01-17T05:33:03.421Z,0
2017-01-17T05:34:03.841Z,0
2017-01-17T05:35:03.866Z,0
2017-01-17T05:36:04.287Z,0
2017-01-17T05:37:03.911Z,0
2017-01-17T05:38:03.547Z,0
2017-01-17T05:39:03.956Z,0
2017-01-17T05:40:03.993Z,0
2017-01-17T05:41:03.230Z,0
2017-01-17T05:42:03.642Z,0
2017-01-17T05:43:03.668Z,0
2017-01-17T05:44:04.091Z,0
2017-01-17T05:45:04.514Z,0
2017-01-17T05:46:03.737Z,0
2017-01-17T05:47:03.770Z,0
2017-01-17T05:48:03.394Z,0
2017-01-17T05:49:04.216Z,0
2017-01-17T05:50:03.840Z,0
2017-01-17T05:51:04.656Z,0
2017-01-17T05:52:04.290Z,0
2017-01-17T05:53:04.318Z,0
2017-01-17T05:54:04.347Z,0
2017-01-17T05:55:03.562Z,0
2017-01-17T05:56:03.621Z,0
2017-01-17T05:57:04.021Z,0
2017-01-17T05:58:04.042Z,0
2017-01-17T05:59:04.062Z,0
2017-01-17T06:00:04.911Z,0
2017-01-17T06:01:04.516Z,0
2017-01-17T06:02:04.942Z,0
2017-01-17T06:03:04.573Z,0
2017-01-17T06:04:04.198Z,0
2017-01-17T06:05:04.632Z,0
2017-01-17T06:06:04.648Z,0
2017-01-17T06:07:03.876Z,0
2017-01-17T06:08:04.310Z,0
2017-01-17T06:09:04.340Z,0
2017-01-17T06:10:05.143Z,0
2017-01-17T06:11:04.770Z,0
2017-01-17T06:12:05.188Z,0
2017-01-17T06:13:04.418Z,0
2017-01-17T06:14:04.841Z,0
2017-01-17T06:15:04.475Z,0
2017-01-17T06:16:04.899Z,0
2017-01-17T06:17:05.315Z,0
2017-01-17T06:18:05.341Z,0
2017-01-17T06:19:04.978Z,0
2017-01-17T06:20:04.603Z,0
2017-01-17T06:21:04.239Z,0
2017-01-17T06:22:04.258Z,0
2017-01-17T06:23:05.064Z,0
2017-01-17T06:24:04.701Z,0
2017-01-17T06:25:05.126Z,0
2017-01-17T06:26:05.554Z,0
2017-01-17T06:27:05.175Z,0
2017-01-17T06:28:05.196Z,0
2017-01-17T06:29:05.625Z,0
2017-01-17T06:30:04.861Z,0
2017-01-17T06:31:05.278Z,0
2017-01-17T06:32:04.919Z,0
2017-01-17T06:33:05.744Z,0
2017-01-17T06:34:04.960Z,0
2017-01-17T06:35:04.985Z,0
2017-01-17T06:36:05.410Z,0
2017-01-17T06:37:05.423Z,0
2017-01-17T06:38:05.459Z,0
2017-01-17T06:39:05.088Z,0
2017-01-17T06:40:05.109Z,0
2017-01-17T06:41:04.735Z,0
2017-01-17T06:42:04.766Z,0
2017-01-17T06:43:05.192Z,0
2017-01-17T06:44:04.812Z,0
2017-01-17T06:45:05.236Z,0
2017-01-17T06:46:05.659Z,0
2017-01-17T06:47:05.686Z,0
2017-01-17T06:48:06.107Z,0
2017-01-17T06:49:05.732Z,0
2017-01-17T06:50:05.364Z,0
2017-01-17T06:51:05.393Z,0
2017-01-17T06:52:05.017Z,0
2017-01-17T06:53:05.049Z,0
2017-01-17T06:54:05.487Z,0
2017-01-17T06:55:05.092Z,0
2017-01-17T06:56:05.530Z,0
2017-01-17T06:57:06.342Z,0
2017-01-17T06:58:06.358Z,4
2017-01-17T06:59:05.195Z,4
2017-01-17T07:00:06.020Z,4
2017-01-17T07:01:06.040Z,0
2017-01-17T07:02:06.077Z,4
2017-01-17T07:03:06.494Z,4
2017-01-17T07:04:05.727Z,8
2017-01-17T07:05:06.151Z,4
2017-01-17T07:06:06.176Z,4
2017-01-17T07:07:06.596Z,8
2017-01-17T07:08:06.217Z,8
2017-01-17T07:09:05.854Z,8
2017-01-17T07:10:05.471Z,12
2017-01-17T07:11:06.304Z,12
2017-01-17T07:12:05.955Z,16
2017-01-17T07:13:05.953Z,16
2017-01-17T07:14:05.590Z,20
2017-01-17T07:15:06.799Z,20
2017-01-17T07:16:06.427Z,20
2017-01-17T07:17:06.060Z,24
2017-01-17T07:18:06.084Z,28
2017-01-17T07:19:06.501Z,32
2017-01-17T07:20:05.742Z,36
2017-01-17T07:21:06.555Z,40
2017-01-17T07:22:06.188Z,40
2017-01-17T07:23:06.610Z,48
2017-01-17T07:24:06.633Z,48
2017-01-17T07:25:06.656Z,56
2017-01-17T07:26:07.082Z,60
2017-01-17T07:27:06.707Z,64
2017-01-17T07:28:06.732Z,60
2017-01-17T07:29:05.966Z,64
2017-01-17T07:30:06.793Z,76
2017-01-17T07:31:06.431Z,80
2017-01-17T07:32:06.439Z,80
2017-01-17T07:33:07.255Z,92
2017-01-17T07:34:06.893Z,100
2017-01-17T07:35:07.313Z,96
2017-01-17T07:36:06.545Z,104
2017-01-17T07:37:06.174Z,108
2017-01-17T07:38:06.999Z,128
2017-01-17T07:39:06.616Z,124
2017-01-17T07:40:06.254Z,132
2017-01-17T07:41:06.273Z,128
2017-01-17T07:42:07.103Z,136
2017-01-17T07:43:07.131Z,144
2017-01-17T07:44:07.544Z,152
2017-01-17T07:45:06.772Z,148
2017-01-17T07:46:06.805Z,148
2017-01-17T07:47:06.829Z,168
2017-01-17T07:48:07.249Z,176
2017-01-17T07:49:07.280Z,176
2017-01-17T07:50:07.323Z,188
2017-01-17T07:51:07.340Z,180
2017-01-17T07:52:07.353Z,192
2017-01-17T07:53:07.774Z,196
2017-01-17T07:54:07.006Z,200
2017-01-17T07:55:06.639Z,184
2017-01-17T07:56:06.660Z,188
2017-01-17T07:57:07.907Z,188
2017-01-17T07:58:07.520Z,192
2017-01-17T07:59:07.142Z,196
2017-01-17T08:00:07.176Z,208
2017-01-17T08:01:07.203Z,232
2017-01-17T08:02:08.007Z,216
2017-01-17T08:03:07.643Z,232
2017-01-17T08:04:08.057Z,228
2017-01-17T08:05:07.341Z,224
2017-01-17T08:06:07.323Z,208
2017-01-17T08:07:07.755Z,176
2017-01-17T08:08:06.972Z,216
2017-01-17T08:09:07.393Z,236
2017-01-17T08:10:08.226Z,220
2017-01-17T08:11:07.447Z,256
2017-01-17T08:12:07.883Z,252
2017-01-17T08:13:07.495Z,272
2017-01-17T08:14:07.920Z,272
2017-01-17T08:15:07.549Z,328
2017-01-17T08:16:07.970Z,464
2017-01-17T08:17:07.219Z,524
2017-01-17T08:18:08.019Z,544
2017-01-17T08:19:08.068Z,512
2017-01-17T08:20:07.681Z,536
2017-01-17T08:21:08.089Z,576
2017-01-17T08:22:07.342Z,548
2017-01-17T08:23:07.759Z,540
2017-01-17T08:24:08.582Z,544
2017-01-17T08:25:08.201Z,592
2017-01-17T08:26:07.831Z,576
2017-01-17T08:27:08.657Z,608
2017-01-17T08:28:08.278Z,640
2017-01-17T08:29:08.299Z,628
2017-01-17T08:30:07.940Z,620
2017-01-17T08:31:07.974Z,644
2017-01-17T08:32:08.775Z,600
2017-01-17T08:33:08.010Z,640
2017-01-17T08:34:08.039Z,628
2017-01-17T08:35:08.067Z,656
2017-01-17T08:36:08.872Z,676
2017-01-17T08:37:08.916Z,680
2017-01-17T08:38:08.138Z,724
2017-01-17T08:39:08.166Z,784
2017-01-17T08:40:08.586Z,744
2017-01-17T08:41:08.219Z,744
2017-01-17T08:42:07.849Z,816
2017-01-17T08:43:07.865Z,900
2017-01-17T08:44:08.697Z,896
2017-01-17T08:45:07.918Z,908
2017-01-17T08:46:08.730Z,896
2017-01-17T08:47:07.959Z,976
2017-01-17T08:48:07.992Z,1216
2017-01-17T08:49:08.420Z,2304
2017-01-17T08:50:08.053Z,2360
2017-01-17T08:51:08.466Z,2336
2017-01-17T08:52:08.103Z,2308
2017-01-17T08:53:08.539Z,2268
2017-01-17T08:54:08.940Z,2328
2017-01-17T08:55:08.977Z,2244
2017-01-17T08:56:08.605Z,2248
2017-01-17T08:57:09.018Z,2264
2017-01-17T08:58:09.054Z,2412
2017-01-17T08:59:08.275Z,2352
2017-01-17T09:00:09.096Z,2404
2017-01-17T09:01:08.325Z,2424
2017-01-17T09:02:09.149Z,2448
2017-01-17T09:03:09.166Z,2592
2017-01-17T09:04:08.406Z,2540
2017-01-17T09:05:08.435Z,2540
2017-01-17T09:06:08.864Z,2744
2017-01-17T09:07:08.489Z,2584
2017-01-17T09:08:08.908Z,2552
2017-01-17T09:09:09.327Z,2552
2017-01-17T09:10:08.959Z,2620
2017-01-17T09:11:09.780Z,2524
2017-01-17T09:12:09.413Z,2452
2017-01-17T09:13:08.641Z,1992
2017-01-17T09:14:09.070Z,1592
2017-01-17T09:15:09.106Z,1524
2017-01-17T09:16:08.719Z,1508
2017-01-17T09:17:09.133Z,1496
2017-01-17T09:18:09.565Z,1480
2017-01-17T09:19:09.597Z,1468
2017-01-17T09:20:10.014Z,1456
2017-01-17T09:21:08.850Z,1444
2017-01-17T09:22:09.667Z,1428
2017-01-17T09:23:10.083Z,1432
2017-01-17T09:24:09.321Z,1436
2017-01-17T09:25:09.755Z,1444
2017-01-17T09:26:08.970Z,1452
2017-01-17T09:27:09.807Z,1376
2017-01-17T09:28:10.216Z,1468
2017-01-17T09:29:09.448Z,1488
2017-01-17T09:30:09.469Z,1504
2017-01-17T09:31:09.507Z,1496
2017-01-17T09:32:10.328Z,1500
2017-01-17T09:33:09.943Z,1480
2017-01-17T09:34:09.980Z,1508
2017-01-17T09:35:09.609Z,1516
2017-01-17T09:36:09.630Z,1504
2017-01-17T09:37:09.261Z,1512
2017-01-17T09:38:10.082Z,1496
2017-01-17T09:39:09.715Z,1508
2017-01-17T09:40:09.740Z,896
2017-01-17T09:41:09.757Z,1564
2017-01-17T09:42:09.790Z,1572
2017-01-17T09:43:10.210Z,1552
2017-01-17T09:44:10.636Z,1348
2017-01-17T09:45:10.267Z,1536
2017-01-17T09:46:10.296Z,1516
2017-01-17T09:47:09.921Z,1256
2017-01-17T09:48:10.362Z,1012
2017-01-17T09:49:09.579Z,1392
2017-01-17T09:50:10.395Z,1544
2017-01-17T09:51:10.026Z,1484
2017-01-17T09:52:10.048Z,1804
2017-01-17T09:53:10.085Z,1840
2017-01-17T09:54:10.894Z,1800
2017-01-17T09:55:10.138Z,1576
2017-01-17T09:56:10.564Z,1596
2017-01-17T09:57:10.581Z,1436
2017-01-17T09:58:09.809Z,1336
2017-01-17T09:59:09.842Z,1248
2017-01-17T10:00:10.260Z,1252
2017-01-17T10:01:10.285Z,1220
2017-01-17T10:02:09.912Z,1272
2017-01-17T10:03:10.736Z,1244
2017-01-17T10:04:10.796Z,1216
2017-01-17T10:05:10.786Z,1348
2017-01-17T10:06:11.215Z,1288
2017-01-17T10:07:11.231Z,1324
2017-01-17T10:08:11.256Z,1072
2017-01-17T10:09:11.273Z,1612
2017-01-17T10:10:11.309Z,1840
2017-01-17T10:11:10.566Z,1704
2017-01-17T10:12:10.963Z,1956
2017-01-17T10:13:10.600Z,2388
2017-01-17T10:14:11.428Z,2180
2017-01-17T10:15:10.653Z,2112
2017-01-17T10:16:11.070Z,2256
2017-01-17T10:17:11.499Z,2336
2017-01-17T10:18:10.331Z,2404
2017-01-17T10:19:10.759Z,2320
2017-01-17T10:20:10.783Z,2252
2017-01-17T10:21:10.405Z,2456
2017-01-17T10:22:10.838Z,1780
2017-01-17T10:23:11.251Z,1716
2017-01-17T10:24:10.887Z,2200
2017-01-17T10:25:11.700Z,1964
2017-01-17T10:26:11.736Z,1940
2017-01-17T10:27:10.965Z,2416
2017-01-17T10:28:11.382Z,2360
2017-01-17T10:29:11.011Z,1956
2017-01-17T10:30:11.044Z,1956
2017-01-17T10:31:10.677Z,1788
2017-01-17T10:32:11.089Z,1428
2017-01-17T10:33:11.519Z,1388
2017-01-17T10:34:11.535Z,1692
2017-01-17T10:35:11.566Z,1492
2017-01-17T10:36:10.802Z,1380
2017-01-17T10:37:11.225Z,1632
2017-01-17T10:38:11.642Z,1496
2017-01-17T10:39:11.271Z,1716
2017-01-17T10:40:11.299Z,2208
2017-01-17T10:41:11.724Z,1572
2017-01-17T10:42:11.753Z,1560
2017-01-17T10:43:11.381Z,1416
2017-01-17T10:44:12.498Z,1556
2017-01-17T10:45:11.435Z,1356
2017-01-17T10:46:12.252Z,1016
2017-01-17T10:47:11.084Z,968
2017-01-17T10:48:11.910Z,1356
2017-01-17T10:49:11.538Z,1432
2017-01-17T10:50:11.959Z,1300
2017-01-17T10:51:11.979Z,1252
2017-01-17T10:52:11.608Z,1292
2017-01-17T10:53:12.037Z,1332
2017-01-17T10:54:11.669Z,1276
2017-01-17T10:55:11.302Z,1244
2017-01-17T10:56:12.115Z,1536
2017-01-17T10:57:12.536Z,1780
2017-01-17T10:58:12.180Z,1372
2017-01-17T10:59:12.200Z,1292
2017-01-17T11:00:12.610Z,1248
2017-01-17T11:01:12.242Z,1344
2017-01-17T11:02:11.483Z,1204
2017-01-17T11:03:11.904Z,1336
2017-01-17T11:04:11.928Z,1248
2017-01-17T11:05:12.345Z,1668
2017-01-17T11:06:12.376Z,1768
2017-01-17T11:07:12.399Z,1300
2017-01-17T11:08:12.429Z,1248
2017-01-17T11:09:12.060Z,1400
2017-01-17T11:10:12.485Z,1656
2017-01-17T11:11:12.510Z,1984
2017-01-17T11:12:12.530Z,1692
2017-01-17T11:13:12.952Z,1368
2017-01-17T11:14:12.180Z,1664
2017-01-17T11:15:13.005Z,1660
2017-01-17T11:16:11.841Z,1712
2017-01-17T11:17:13.054Z,1860
2017-01-17T11:18:12.683Z,2024
2017-01-17T11:19:12.720Z,1928
2017-01-17T11:20:13.160Z,1644
2017-01-17T11:21:12.760Z,1600
2017-01-17T11:22:12.794Z,1624
2017-01-17T11:23:12.421Z,1672
2017-01-17T11:24:12.435Z,1612
2017-01-17T11:25:12.072Z,1644
2017-01-17T11:26:12.529Z,1616
2017-01-17T11:27:12.914Z,1564
2017-01-17T11:28:12.942Z,1688
2017-01-17T11:29:12.984Z,1712
2017-01-17T11:30:13.388Z,1660
2017-01-17T11:31:13.408Z,1748
2017-01-17T11:32:12.655Z,1852
2017-01-17T11:33:13.070Z,1636
2017-01-17T11:34:13.099Z,1684
2017-01-17T11:35:12.331Z,1904
2017-01-17T11:36:12.357Z,1936
2017-01-17T11:37:13.568Z,1684
2017-01-17T11:38:13.597Z,1656
2017-01-17T11:39:13.228Z,1720
2017-01-17T11:40:13.243Z,1640
2017-01-17T11:41:12.880Z,1960
2017-01-17T11:42:12.517Z,1856
2017-01-17T11:43:12.538Z,1516
2017-01-17T11:44:12.958Z,1920
2017-01-17T11:45:13.385Z,1940
2017-01-17T11:46:13.795Z,2204
2017-01-17T11:47:12.636Z,2640
2017-01-17T11:48:13.060Z,2972
2017-01-17T11:49:13.489Z,2136
2017-01-17T11:50:13.106Z,1852
2017-01-17T11:51:12.743Z,2072
2017-01-17T11:52:12.769Z,2332
2017-01-17T11:53:13.985Z,2380
2017-01-17T11:54:14.034Z,2156
2017-01-17T11:55:14.026Z,2520
2017-01-17T11:56:13.271Z,2768
2017-01-17T11:57:13.292Z,2228
2017-01-17T11:58:14.112Z,2024
2017-01-17T11:59:13.730Z,1696
2017-01-17T12:00:13.373Z,1700
2017-01-17T12:01:14.178Z,1736
2017-01-17T12:02:14.215Z,2144
2017-01-17T12:03:13.866Z,1904
2017-01-17T12:04:13.492Z,1556
2017-01-17T12:05:13.893Z,1520
2017-01-17T12:06:13.934Z,1636
2017-01-17T12:07:13.154Z,1824
2017-01-17T12:08:13.583Z,1708
2017-01-17T12:09:13.996Z,2068
2017-01-17T12:10:14.017Z,1952
2017-01-17T12:11:13.649Z,2020
2017-01-17T12:12:14.077Z,2252
2017-01-17T12:13:13.714Z,2280
2017-01-17T12:14:14.127Z,2612
2017-01-17T12:15:13.756Z,1952
2017-01-17T12:16:14.176Z,2040
2017-01-17T12:17:14.197Z,1996
2017-01-17T12:18:13.825Z,1960
2017-01-17T12:19:14.659Z,1988
2017-01-17T12:20:13.486Z,2488
2017-01-17T12:21:13.512Z,2948
2017-01-17T12:22:13.560Z,2532
2017-01-17T12:23:14.757Z,2168
2017-01-17T12:24:14.390Z,3144
2017-01-17T12:25:14.806Z,3108
2017-01-17T12:26:14.439Z,2476
2017-01-17T12:27:14.463Z,2124
2017-01-17T12:28:13.700Z,1480
2017-01-17T12:29:14.513Z,1068
2017-01-17T12:30:14.933Z,1468
2017-01-17T12:31:13.772Z,1324
2017-01-17T12:32:14.595Z,1340
2017-01-17T12:33:14.224Z,1232
2017-01-17T12:34:13.852Z,1740
2017-01-17T12:35:14.269Z,1812
2017-01-17T12:36:14.294Z,1540
2017-01-17T12:37:14.327Z,1224
2017-01-17T12:38:14.747Z,1428
2017-01-17T12:39:14.784Z,1384
2017-01-17T12:40:14.800Z,1236
2017-01-17T12:41:15.225Z,1400
2017-01-17T12:42:14.854Z,2048
2017-01-17T12:43:15.266Z,2344
2017-01-17T12:44:14.515Z,2236
2017-01-17T12:45:14.927Z,1916
2017-01-17T12:46:14.164Z,2068
2017-01-17T12:47:14.981Z,1704
2017-01-17T12:48:15.001Z,2008
2017-01-17T12:49:15.022Z,2148
2017-01-17T12:50:14.662Z,1992
2017-01-17T12:51:14.694Z,1992
2017-01-17T12:52:15.099Z,2376
2017-01-17T12:53:14.732Z,2444
2017-01-17T12:54:14.765Z,2424
2017-01-17T12:55:15.186Z,3000
2017-01-17T12:56:14.821Z,2460
2017-01-17T12:57:14.833Z,2116
2017-01-17T12:58:15.654Z,1936
2017-01-17T12:59:15.282Z,1984
2017-01-17T13:00:15.303Z,1592
2017-01-17T13:01:15.344Z,1328
2017-01-17T13:02:14.572Z,1820
2017-01-17T13:03:14.592Z,1584
2017-01-17T13:04:15.029Z,1284
2017-01-17T13:05:15.442Z,1540
2017-01-17T13:06:15.466Z,1336
2017-01-17T13:07:15.092Z,1368
2017-01-17T13:08:15.515Z,1692
2017-01-17T13:09:15.543Z,1880
2017-01-17T13:10:15.169Z,1640
2017-01-17T13:11:15.593Z,1800
2017-01-17T13:12:15.226Z,2164
2017-01-17T13:13:15.650Z,1984
2017-01-17T13:14:15.270Z,1848
2017-01-17T13:15:16.104Z,2272
2017-01-17T13:16:15.728Z,2500
2017-01-17T13:17:15.350Z,2168
2017-01-17T13:18:15.372Z,1760
2017-01-17T13:19:16.194Z,2252
2017-01-17T13:20:15.818Z,2408
2017-01-17T13:21:15.850Z,2728
2017-01-17T13:22:15.080Z,2508
2017-01-17T13:23:15.907Z,1792
2017-01-17T13:24:15.934Z,2260
2017-01-17T13:25:15.160Z,1936
2017-01-17T13:26:15.976Z,1784
2017-01-17T13:27:16.009Z,2004
2017-01-17T13:28:15.233Z,2548
2017-01-17T13:29:15.657Z,2424
2017-01-17T13:30:15.686Z,2000
2017-01-17T13:31:15.311Z,1628
2017-01-17T13:32:16.132Z,2384
2017-01-17T13:33:15.759Z,1628
2017-01-17T13:34:16.580Z,1824
2017-01-17T13:35:16.204Z,2072
2017-01-17T13:36:16.237Z,2384
2017-01-17T13:37:16.254Z,1848
2017-01-17T13:38:16.282Z,1876
2017-01-17T13:39:16.711Z,1948
2017-01-17T13:40:15.941Z,1672
2017-01-17T13:41:16.368Z,1620
2017-01-17T13:42:16.380Z,2112
2017-01-17T13:43:16.809Z,1520
2017-01-17T13:44:16.045Z,1480
2017-01-17T13:45:16.462Z,1240
2017-01-17T13:46:16.482Z,1320
2017-01-17T13:47:16.518Z,1060
2017-01-17T13:48:16.144Z,972
2017-01-17T13:49:15.768Z,1012
2017-01-17T13:50:16.592Z,1028
2017-01-17T13:51:16.613Z,1008
2017-01-17T13:52:16.250Z,916
2017-01-17T13:53:16.682Z,896
2017-01-17T13:54:16.299Z,904
2017-01-17T13:55:16.719Z,916
2017-01-17T13:56:15.953Z,940
2017-01-17T13:57:17.172Z,956
2017-01-17T13:58:16.800Z,932
2017-01-17T13:59:17.217Z,920
2017-01-17T14:00:16.453Z,1184
2017-01-17T14:01:16.866Z,1552
2017-01-17T14:02:16.503Z,1680
2017-01-17T14:03:16.524Z,1272
2017-01-17T14:04:16.156Z,1472
2017-01-17T14:05:16.572Z,1668
2017-01-17T14:06:17.426Z,1552